createdAt,value
2022-08-26T00:00:12.329Z,24.14
2022-08-26T00:01:12.293Z,24.16
2022-08-26T00:02:12.322Z,24.14
2022-08-26T00:03:12.274Z,24.14
2022-08-26T00:04:12.344Z,24.16
2022-08-26T00:05:12.277Z,24.16
2022-08-26T00:06:12.241Z,24.16
2022-08-26T00:07:12.230Z,24.16
2022-08-26T00:08:12.992Z,24.14
2022-08-26T00:09:12.208Z,24.14
2022-08-26T00:10:12.223Z,24.14
2022-08-26T00:11:12.187Z,24.16
2022-08-26T00:12:12.645Z,24.16
2022-08-26T00:13:12.164Z,24.14
2022-08-26T00:14:12.152Z,24.16
2022-08-26T00:15:12.171Z,24.14
2022-08-26T00:16:12.155Z,24.14
2022-08-26T00:17:12.153Z,24.16
2022-08-26T00:18:22.357Z,24.14
2022-08-26T00:19:13.102Z,24.16
2022-08-26T00:20:12.090Z,24.14
2022-08-26T00:21:12.079Z,24.14
2022-08-26T00:22:12.076Z,24.16
2022-08-26T00:23:12.084Z,24.14
2022-08-26T00:24:12.073Z,24.14
2022-08-26T00:25:12.041Z,24.14
2022-08-26T00:26:12.025Z,24.16
2022-08-26T00:27:12.015Z,24.14
2022-08-26T00:28:12.004Z,24.16
2022-08-26T00:29:12.020Z,24.16
2022-08-26T00:30:12.009Z,24.14
2022-08-26T00:31:11.971Z,24.14
2022-08-26T00:32:11.964Z,24.14
2022-08-26T00:33:11.949Z,24.14
2022-08-26T00:34:12.075Z,24.13
2022-08-26T00:35:11.955Z,24.14
2022-08-26T00:36:19.892Z,24.14
2022-08-26T00:37:16.172Z,24.14
2022-08-26T00:38:11.929Z,24.14
2022-08-26T00:39:11.887Z,24.14
2022-08-26T00:40:11.880Z,24.14
2022-08-26T00:41:11.863Z,24.14
2022-08-26T00:42:11.855Z,24.14
2022-08-26T00:43:11.843Z,24.14
2022-08-26T00:44:11.995Z,24.14
2022-08-26T00:45:11.905Z,24.13
2022-08-26T00:46:11.869Z,24.14
2022-08-26T00:47:11.800Z,24.16
2022-08-26T00:48:11.788Z,24.16
2022-08-26T00:49:12.505Z,24.14
2022-08-26T00:50:11.794Z,24.14
2022-08-26T00:51:11.758Z,24.14
2022-08-26T00:52:11.910Z,24.14
2022-08-26T00:53:11.736Z,24.14
2022-08-26T00:54:11.744Z,24.14
2022-08-26T00:55:11.713Z,24.14
2022-08-26T00:56:12.701Z,24.13
2022-08-26T00:57:16.291Z,24.14
2022-08-26T00:58:11.680Z,24.14
2022-08-26T00:59:11.672Z,24.14
2022-08-26T01:00:11.658Z,24.13
2022-08-26T01:01:11.717Z,24.13
2022-08-26T01:02:20.123Z,24.13
2022-08-26T01:03:12.761Z,24.14
2022-08-26T01:04:11.616Z,24.13
2022-08-26T01:05:11.604Z,24.14
2022-08-26T01:06:13.036Z,24.14
2022-08-26T01:07:11.586Z,24.14
2022-08-26T01:08:11.573Z,24.14
2022-08-26T01:09:11.583Z,24.13
2022-08-26T01:10:11.591Z,24.14
2022-08-26T01:11:11.542Z,24.13
2022-08-26T01:12:11.531Z,24.14
2022-08-26T01:13:11.520Z,24.13
2022-08-26T01:14:11.534Z,24.14
2022-08-26T01:15:11.510Z,24.14
2022-08-26T01:16:11.559Z,24.13
2022-08-26T01:17:11.475Z,24.14
2022-08-26T01:18:11.465Z,24.14
2022-08-26T01:19:11.454Z,24.14
2022-08-26T01:20:11.465Z,24.14
2022-08-26T01:21:11.432Z,24.14
2022-08-26T01:22:11.423Z,24.14
2022-08-26T01:23:11.411Z,24.14
2022-08-26T01:24:11.403Z,24.16
2022-08-26T01:25:11.413Z,24.14
2022-08-26T01:26:19.519Z,24.13
2022-08-26T01:27:12.369Z,24.13
2022-08-26T01:28:11.358Z,24.14
2022-08-26T01:29:11.345Z,24.14
2022-08-26T01:30:11.348Z,24.13
2022-08-26T01:31:11.363Z,24.13
2022-08-26T01:32:11.334Z,24.14
2022-08-26T01:33:11.303Z,24.14
2022-08-26T01:34:11.295Z,24.13
2022-08-26T01:35:11.284Z,24.14
2022-08-26T01:36:11.278Z,24.13
2022-08-26T01:37:14.166Z,24.14
2022-08-26T01:38:11.252Z,24.14
2022-08-26T01:39:11.243Z,24.14
2022-08-26T01:40:11.288Z,24.13
2022-08-26T01:41:16.307Z,24.14
2022-08-26T01:42:12.206Z,24.14
2022-08-26T01:43:11.216Z,24.13
2022-08-26T01:44:11.198Z,24.13
2022-08-26T01:45:11.202Z,24.13
2022-08-26T01:46:11.221Z,24.13
2022-08-26T01:47:11.156Z,24.16
2022-08-26T01:48:11.147Z,24.14
2022-08-26T01:49:11.155Z,24.13
2022-08-26T01:50:11.157Z,24.14
2022-08-26T01:51:11.114Z,24.13
2022-08-26T01:52:11.102Z,24.13
2022-08-26T01:53:11.449Z,24.14
2022-08-26T01:54:11.905Z,24.14
2022-08-26T01:55:11.091Z,24.14
2022-08-26T01:56:11.062Z,24.14
2022-08-26T01:57:11.048Z,24.14
2022-08-26T01:58:11.069Z,24.13
2022-08-26T01:59:11.027Z,24.14
2022-08-26T02:00:11.016Z,24.13
2022-08-26T02:01:11.029Z,24.14
2022-08-26T02:02:10.997Z,24.14
2022-08-26T02:03:10.986Z,24.14
2022-08-26T02:04:11.045Z,24.13
2022-08-26T02:05:10.963Z,24.13
2022-08-26T02:06:10.958Z,24.14
2022-08-26T02:07:10.943Z,24.13
2022-08-26T02:08:10.935Z,24.13
2022-08-26T02:09:10.921Z,24.13
2022-08-26T02:10:10.932Z,24.14
2022-08-26T02:11:10.901Z,24.13
2022-08-26T02:12:10.892Z,24.13
2022-08-26T02:13:10.881Z,24.13
2022-08-26T02:14:10.872Z,24.14
2022-08-26T02:15:11.063Z,24.13
2022-08-26T02:16:10.869Z,24.13
2022-08-26T02:17:10.839Z,24.13
2022-08-26T02:18:14.246Z,24.13
2022-08-26T02:19:11.665Z,24.13
2022-08-26T02:20:13.329Z,24.11
2022-08-26T02:21:10.798Z,24.13
2022-08-26T02:22:10.808Z,24.13
2022-08-26T02:23:10.776Z,24.14
2022-08-26T02:24:10.769Z,24.13
2022-08-26T02:25:10.759Z,24.13
2022-08-26T02:26:10.747Z,24.13
2022-08-26T02:27:10.736Z,24.13
2022-08-26T02:28:10.747Z,24.13
2022-08-26T02:29:10.714Z,24.13
2022-08-26T02:30:10.711Z,24.13
2022-08-26T02:31:10.719Z,24.11
2022-08-26T02:32:10.687Z,24.13
2022-08-26T02:33:10.694Z,24.13
2022-08-26T02:34:10.831Z,24.13
2022-08-26T02:35:10.674Z,24.13
2022-08-26T02:36:10.644Z,24.11
2022-08-26T02:37:10.632Z,24.13
2022-08-26T02:38:11.205Z,24.13
2022-08-26T02:39:10.610Z,24.13
2022-08-26T02:40:10.698Z,24.13
2022-08-26T02:41:10.589Z,24.13
2022-08-26T02:42:10.580Z,24.11
2022-08-26T02:43:10.569Z,24.10
2022-08-26T02:44:10.562Z,24.11
2022-08-26T02:45:10.547Z,24.11
2022-08-26T02:46:10.608Z,24.13
2022-08-26T02:47:10.565Z,24.13
2022-08-26T02:48:10.521Z,24.11
2022-08-26T02:49:10.504Z,24.11
2022-08-26T02:50:10.496Z,24.11
2022-08-26T02:51:10.507Z,24.11
2022-08-26T02:52:10.475Z,24.11
2022-08-26T02:53:10.464Z,24.11
2022-08-26T02:54:10.453Z,24.11
2022-08-26T02:55:10.444Z,24.13
2022-08-26T02:56:10.456Z,24.11
2022-08-26T02:57:10.421Z,24.13
2022-08-26T02:58:10.413Z,24.11
2022-08-26T02:59:10.421Z,24.13
2022-08-26T03:00:10.393Z,24.11
2022-08-26T03:01:10.475Z,24.11
2022-08-26T03:02:10.447Z,24.11
2022-08-26T03:03:10.379Z,24.11
2022-08-26T03:04:10.349Z,24.11
2022-08-26T03:05:10.340Z,24.11
2022-08-26T03:06:10.330Z,24.11
2022-08-26T03:07:10.336Z,24.10
2022-08-26T03:08:10.311Z,24.11
2022-08-26T03:09:10.317Z,24.13
2022-08-26T03:10:11.311Z,24.11
2022-08-26T03:11:10.277Z,24.11
2022-08-26T03:12:10.267Z,24.11
2022-08-26T03:13:10.264Z,24.10
2022-08-26T03:14:10.244Z,24.11
2022-08-26T03:15:17.711Z,24.11
2022-08-26T03:16:11.408Z,24.11
2022-08-26T03:17:10.211Z,24.11
2022-08-26T03:18:10.220Z,24.11
2022-08-26T03:19:10.191Z,24.11
2022-08-26T03:20:10.208Z,24.11
2022-08-26T03:21:10.169Z,24.10
2022-08-26T03:22:10.162Z,24.11
2022-08-26T03:23:10.370Z,24.11
2022-08-26T03:24:10.140Z,24.11
2022-08-26T03:25:10.148Z,24.13
2022-08-26T03:26:10.970Z,24.11
2022-08-26T03:27:10.105Z,24.10
2022-08-26T03:28:10.095Z,24.10
2022-08-26T03:29:10.091Z,24.11
2022-08-26T03:30:11.627Z,24.10
2022-08-26T03:31:10.099Z,24.11
2022-08-26T03:32:10.062Z,24.10
2022-08-26T03:33:10.168Z,24.11
2022-08-26T03:34:11.310Z,24.10
2022-08-26T03:35:10.023Z,24.10
2022-08-26T03:36:10.031Z,24.11
2022-08-26T03:37:10.019Z,24.10
2022-08-26T03:38:09.993Z,24.11
2022-08-26T03:39:09.981Z,24.10
2022-08-26T03:40:10.078Z,24.10
2022-08-26T03:41:09.963Z,24.10
2022-08-26T03:42:10.733Z,24.10
2022-08-26T03:43:10.304Z,24.10
2022-08-26T03:44:09.927Z,24.10
2022-08-26T03:45:09.919Z,24.10
2022-08-26T03:46:09.951Z,24.10
2022-08-26T03:47:09.895Z,24.10
2022-08-26T03:48:09.884Z,24.10
2022-08-26T03:49:09.895Z,24.10
2022-08-26T03:50:09.865Z,24.10
2022-08-26T03:51:09.853Z,24.10
2022-08-26T03:52:09.842Z,24.10
2022-08-26T03:53:12.690Z,24.11
2022-08-26T03:54:09.839Z,24.10
2022-08-26T03:55:09.811Z,24.10
2022-08-26T03:56:09.798Z,24.11
2022-08-26T03:57:09.792Z,24.10
2022-08-26T03:58:09.777Z,24.10
2022-08-26T03:59:09.791Z,24.10
2022-08-26T04:00:09.756Z,24.10
2022-08-26T04:01:09.745Z,24.10
2022-08-26T04:02:11.465Z,24.10
2022-08-26T04:03:10.404Z,24.08
2022-08-26T04:04:09.712Z,24.10
2022-08-26T04:05:10.726Z,24.10
2022-08-26T04:06:09.693Z,24.10
2022-08-26T04:07:09.681Z,24.10
2022-08-26T04:08:10.078Z,24.10
2022-08-26T04:09:09.681Z,24.10
2022-08-26T04:10:09.648Z,24.10
2022-08-26T04:11:09.640Z,24.11
2022-08-26T04:12:09.626Z,24.10
2022-08-26T04:13:09.779Z,24.10
2022-08-26T04:14:09.625Z,24.10
2022-08-26T04:15:09.598Z,24.10
2022-08-26T04:16:10.267Z,24.10
2022-08-26T04:17:09.574Z,24.10
2022-08-26T04:18:09.563Z,24.10
2022-08-26T04:19:09.574Z,24.10
2022-08-26T04:20:09.542Z,24.10
2022-08-26T04:21:09.534Z,24.10
2022-08-26T04:22:09.549Z,24.10
2022-08-26T04:23:09.593Z,24.10
2022-08-26T04:24:11.814Z,24.10
2022-08-26T04:25:09.508Z,24.08
2022-08-26T04:26:09.479Z,24.10
2022-08-26T04:27:09.471Z,24.10
2022-08-26T04:28:09.458Z,24.10
2022-08-26T04:29:09.450Z,24.08
2022-08-26T04:30:09.595Z,24.10
2022-08-26T04:31:09.466Z,24.10
2022-08-26T04:32:09.417Z,24.10
2022-08-26T04:33:13.125Z,24.10
2022-08-26T04:34:09.395Z,24.10
2022-08-26T04:35:09.390Z,24.10
2022-08-26T04:36:09.375Z,24.10
2022-08-26T04:37:09.393Z,24.10
2022-08-26T04:38:09.355Z,24.10
2022-08-26T04:39:09.344Z,24.11
2022-08-26T04:40:09.365Z,24.08
2022-08-26T04:41:15.656Z,24.10
2022-08-26T04:42:10.330Z,24.10
2022-08-26T04:43:09.415Z,24.08
2022-08-26T04:44:09.289Z,24.11
2022-08-26T04:45:10.307Z,24.10
2022-08-26T04:46:09.329Z,24.08
2022-08-26T04:47:09.261Z,24.10
2022-08-26T04:48:11.032Z,24.10
2022-08-26T04:49:09.239Z,24.08
2022-08-26T04:50:09.246Z,24.10
2022-08-26T04:51:09.334Z,24.10
2022-08-26T04:52:09.205Z,24.08
2022-08-26T04:53:09.389Z,24.08
2022-08-26T04:54:09.187Z,24.10
2022-08-26T04:55:09.176Z,24.10
2022-08-26T04:56:09.169Z,24.10
2022-08-26T04:57:09.174Z,24.10
2022-08-26T04:58:10.468Z,24.10
2022-08-26T04:59:17.160Z,24.10
2022-08-26T05:00:10.123Z,24.10
2022-08-26T05:01:09.110Z,24.10
2022-08-26T05:02:09.166Z,24.10
2022-08-26T05:03:10.476Z,24.08
2022-08-26T05:04:09.116Z,24.08
2022-08-26T05:05:09.088Z,24.10
2022-08-26T05:06:09.063Z,24.10
2022-08-26T05:07:09.048Z,24.10
2022-08-26T05:08:09.044Z,24.08
2022-08-26T05:09:09.049Z,24.08
2022-08-26T05:10:09.018Z,24.08
2022-08-26T05:11:09.428Z,24.08
2022-08-26T05:12:09.163Z,24.10
2022-08-26T05:13:11.218Z,24.10
2022-08-26T05:14:09.001Z,24.08
2022-08-26T05:15:08.964Z,24.10
2022-08-26T05:16:08.996Z,24.10
2022-08-26T05:17:08.945Z,24.08
2022-08-26T05:18:08.936Z,24.08
2022-08-26T05:19:08.922Z,24.08
2022-08-26T05:20:08.935Z,24.10
2022-08-26T05:21:08.902Z,24.08
2022-08-26T05:22:08.892Z,24.08
2022-08-26T05:23:09.146Z,24.10
2022-08-26T05:24:08.874Z,24.10
2022-08-26T05:25:08.880Z,24.08
2022-08-26T05:26:08.854Z,24.08
2022-08-26T05:27:11.774Z,24.10
2022-08-26T05:28:08.829Z,24.06
2022-08-26T05:29:08.821Z,24.08
2022-08-26T05:30:08.834Z,24.10
2022-08-26T05:31:08.864Z,24.10
2022-08-26T05:32:08.790Z,24.10
2022-08-26T05:33:09.080Z,24.08
2022-08-26T05:34:08.767Z,24.06
2022-08-26T05:35:09.085Z,24.08
2022-08-26T05:36:08.772Z,24.08
2022-08-26T05:37:08.736Z,24.10
2022-08-26T05:38:12.411Z,24.08
2022-08-26T05:39:10.348Z,24.08
2022-08-26T05:40:08.733Z,24.08
2022-08-26T05:41:08.696Z,24.08
2022-08-26T05:42:08.705Z,24.08
2022-08-26T05:43:08.871Z,24.08
2022-08-26T05:44:08.664Z,24.08
2022-08-26T05:45:08.651Z,24.08
2022-08-26T05:46:08.728Z,24.10
2022-08-26T05:47:08.632Z,24.08
2022-08-26T05:48:08.619Z,24.10
2022-08-26T05:49:12.451Z,24.08
2022-08-26T05:50:08.601Z,24.08
2022-08-26T05:51:08.587Z,24.08
2022-08-26T05:52:08.599Z,24.08
2022-08-26T05:53:08.806Z,24.08
2022-08-26T05:54:08.558Z,24.10
2022-08-26T05:55:08.545Z,24.08
2022-08-26T05:56:08.557Z,24.08
2022-08-26T05:57:08.524Z,24.10
2022-08-26T05:58:08.516Z,24.08
2022-08-26T05:59:14.158Z,24.08
2022-08-26T06:00:09.511Z,24.08
2022-08-26T06:01:08.482Z,24.08
2022-08-26T06:02:08.471Z,24.08
2022-08-26T06:03:08.669Z,24.10
2022-08-26T06:04:08.453Z,24.08
2022-08-26T06:05:08.461Z,24.08
2022-08-26T06:06:08.429Z,24.10
2022-08-26T06:07:11.538Z,24.08
2022-08-26T06:08:08.412Z,24.08
2022-08-26T06:09:10.965Z,24.08
2022-08-26T06:10:31.134Z,24.11
2022-08-26T06:11:12.712Z,24.08
2022-08-26T06:12:09.387Z,24.08
2022-08-26T06:13:11.478Z,24.08
2022-08-26T06:14:08.348Z,24.08
2022-08-26T06:15:08.333Z,24.08
2022-08-26T06:16:08.635Z,24.08
2022-08-26T06:17:08.314Z,24.08
2022-08-26T06:18:08.303Z,24.08
2022-08-26T06:19:10.391Z,24.08
2022-08-26T06:20:08.282Z,24.08
2022-08-26T06:21:08.269Z,24.06
2022-08-26T06:22:08.281Z,24.06
2022-08-26T06:23:08.401Z,24.06
2022-08-26T06:24:08.242Z,24.05
2022-08-26T06:25:08.253Z,24.05
2022-08-26T06:26:08.217Z,24.03
2022-08-26T06:27:08.215Z,24.03
2022-08-26T06:28:08.201Z,24.05
2022-08-26T06:29:08.208Z,24.05
2022-08-26T06:30:08.176Z,24.03
2022-08-26T06:31:08.243Z,24.03
2022-08-26T06:32:08.785Z,24.05
2022-08-26T06:33:08.318Z,24.02
2022-08-26T06:34:10.758Z,24.03
2022-08-26T06:35:12.029Z,24.03
2022-08-26T06:36:08.111Z,24.03
2022-08-26T06:37:08.108Z,24.03
2022-08-26T06:38:08.111Z,24.05
2022-08-26T06:39:08.077Z,24.03
2022-08-26T06:40:08.125Z,24.03
2022-08-26T06:41:08.056Z,24.05
2022-08-26T06:42:08.052Z,24.03
2022-08-26T06:43:08.214Z,24.02
2022-08-26T06:44:08.049Z,24.05
2022-08-26T06:45:08.017Z,24.03
2022-08-26T06:46:08.126Z,24.03
2022-08-26T06:47:08.009Z,24.03
2022-08-26T06:48:08.003Z,24.05
2022-08-26T06:49:07.969Z,24.03
2022-08-26T06:50:07.960Z,24.03
2022-08-26T06:51:07.959Z,24.03
2022-08-26T06:52:07.960Z,24.05
2022-08-26T06:53:08.110Z,24.03
2022-08-26T06:54:07.940Z,24.06
2022-08-26T06:55:07.905Z,24.05
2022-08-26T06:56:07.895Z,24.05
2022-08-26T06:57:07.889Z,24.03
2022-08-26T06:58:07.874Z,24.06
2022-08-26T06:59:07.893Z,24.05
2022-08-26T07:00:07.855Z,24.05
2022-08-26T07:01:11.512Z,24.05
2022-08-26T07:02:08.128Z,24.05
2022-08-26T07:03:08.134Z,24.06
2022-08-26T07:04:07.866Z,24.05
2022-08-26T07:05:07.817Z,24.03
2022-08-26T07:06:07.811Z,24.06
2022-08-26T07:07:07.777Z,24.05
2022-08-26T07:08:07.767Z,24.05
2022-08-26T07:09:09.843Z,24.06
2022-08-26T07:10:07.748Z,24.06
2022-08-26T07:11:07.738Z,24.08
2022-08-26T07:12:07.744Z,24.06
2022-08-26T07:13:08.066Z,24.06
2022-08-26T07:14:07.705Z,24.06
2022-08-26T07:15:07.705Z,24.06
2022-08-26T07:16:07.771Z,24.06
2022-08-26T07:17:11.061Z,24.08
2022-08-26T07:18:08.679Z,24.08
2022-08-26T07:19:10.755Z,24.08
2022-08-26T07:20:07.640Z,24.06
2022-08-26T07:21:07.629Z,24.08
2022-08-26T07:22:08.629Z,24.08
2022-08-26T07:23:07.750Z,24.08
2022-08-26T07:24:07.597Z,24.08
2022-08-26T07:25:07.584Z,24.08
2022-08-26T07:26:07.576Z,24.08
2022-08-26T07:27:08.649Z,24.08
2022-08-26T07:28:07.554Z,24.10
2022-08-26T07:29:07.560Z,24.08
2022-08-26T07:30:07.532Z,24.08
2022-08-26T07:31:07.606Z,24.10
2022-08-26T07:32:07.508Z,24.08
2022-08-26T07:33:07.654Z,24.08
2022-08-26T07:34:07.512Z,24.08
2022-08-26T07:35:07.489Z,24.08
2022-08-26T07:36:07.468Z,24.08
2022-08-26T07:37:08.914Z,24.10
2022-08-26T07:38:07.447Z,24.10
2022-08-26T07:39:07.436Z,24.10
2022-08-26T07:40:07.477Z,24.10
2022-08-26T07:41:07.414Z,24.10
2022-08-26T07:42:08.227Z,24.10
2022-08-26T07:43:07.631Z,24.10
2022-08-26T07:44:07.382Z,24.08
2022-08-26T07:45:07.373Z,24.11
2022-08-26T07:46:07.386Z,24.10
2022-08-26T07:47:10.575Z,24.11
2022-08-26T07:48:08.343Z,24.10
2022-08-26T07:49:07.402Z,24.11
2022-08-26T07:50:07.321Z,24.10
2022-08-26T07:51:07.310Z,24.10
2022-08-26T07:52:07.300Z,24.10
2022-08-26T07:53:07.484Z,24.10
2022-08-26T07:54:07.276Z,24.10
2022-08-26T07:55:07.267Z,24.11
2022-08-26T07:56:07.259Z,24.11
2022-08-26T07:57:09.406Z,24.10
2022-08-26T07:58:07.233Z,24.10
2022-08-26T07:59:14.087Z,24.11
2022-08-26T08:00:08.215Z,24.11
2022-08-26T08:01:07.233Z,24.11
2022-08-26T08:02:07.194Z,24.11
2022-08-26T08:03:07.404Z,24.11
2022-08-26T08:04:07.219Z,24.11
2022-08-26T08:05:07.305Z,24.11
2022-08-26T08:06:07.150Z,24.11
2022-08-26T08:07:07.542Z,24.11
2022-08-26T08:08:26.929Z,24.11
2022-08-26T08:09:08.131Z,24.11
2022-08-26T08:10:11.390Z,24.11
2022-08-26T08:11:07.097Z,24.13
2022-08-26T08:12:07.105Z,24.13
2022-08-26T08:13:07.225Z,24.11
2022-08-26T08:14:08.423Z,24.11
2022-08-26T08:15:07.050Z,24.11
2022-08-26T08:16:07.041Z,24.11
2022-08-26T08:17:08.224Z,24.11
2022-08-26T08:18:07.109Z,24.11
2022-08-26T08:19:08.005Z,24.13
2022-08-26T08:20:06.997Z,24.13
2022-08-26T08:21:24.152Z,24.13
2022-08-26T08:22:17.407Z,24.11
2022-08-26T08:23:07.982Z,24.13
2022-08-26T08:24:06.993Z,24.13
2022-08-26T08:25:08.262Z,24.13
2022-08-26T08:26:06.932Z,24.11
2022-08-26T08:27:06.971Z,24.13
2022-08-26T08:28:07.030Z,24.11
2022-08-26T08:29:06.897Z,24.13
2022-08-26T08:30:06.888Z,24.13
2022-08-26T08:31:07.022Z,24.14
2022-08-26T08:32:11.632Z,24.14
2022-08-26T08:33:08.003Z,24.13
2022-08-26T08:34:06.848Z,24.13
2022-08-26T08:35:10.840Z,24.13
2022-08-26T08:36:06.831Z,24.13
2022-08-26T08:37:08.738Z,24.13
2022-08-26T08:38:06.917Z,24.13
2022-08-26T08:39:06.793Z,24.13
2022-08-26T08:40:06.863Z,24.13
2022-08-26T08:41:06.772Z,24.14
2022-08-26T08:42:06.759Z,24.14
2022-08-26T08:43:06.964Z,24.14
2022-08-26T08:44:06.739Z,24.14
2022-08-26T08:45:06.728Z,24.13
2022-08-26T08:46:06.777Z,24.11
2022-08-26T08:47:06.705Z,24.13
2022-08-26T08:48:06.942Z,24.13
2022-08-26T08:49:06.683Z,24.14
2022-08-26T08:50:06.694Z,24.14
2022-08-26T08:51:06.661Z,24.16
2022-08-26T08:52:06.654Z,24.14
2022-08-26T08:53:09.087Z,24.14
2022-08-26T08:54:06.629Z,24.14
2022-08-26T08:55:11.118Z,24.14
2022-08-26T08:56:07.613Z,24.14
2022-08-26T08:57:06.596Z,24.14
2022-08-26T08:58:07.845Z,24.14
2022-08-26T08:59:06.598Z,24.14
2022-08-26T09:00:06.564Z,24.13
2022-08-26T09:01:06.708Z,24.13
2022-08-26T09:02:06.671Z,24.14
2022-08-26T09:03:06.531Z,24.14
2022-08-26T09:04:06.524Z,24.13
2022-08-26T09:05:06.515Z,24.13
2022-08-26T09:06:06.506Z,24.13
2022-08-26T09:07:06.489Z,24.14
2022-08-26T09:08:06.750Z,24.16
2022-08-26T09:09:06.471Z,24.13
2022-08-26T09:10:06.475Z,24.13
2022-08-26T09:11:06.880Z,24.14
2022-08-26T09:12:06.439Z,24.14
2022-08-26T09:13:06.447Z,24.14
2022-08-26T09:14:06.415Z,24.13
2022-08-26T09:15:06.407Z,24.14
2022-08-26T09:16:06.393Z,24.14
2022-08-26T09:17:06.471Z,24.16
2022-08-26T09:18:06.373Z,24.14
2022-08-26T09:19:06.385Z,24.16
2022-08-26T09:20:06.355Z,24.16
2022-08-26T09:21:06.342Z,24.17
2022-08-26T09:22:09.645Z,24.17
2022-08-26T09:23:06.377Z,24.18
2022-08-26T09:24:06.311Z,24.18
2022-08-26T09:25:06.299Z,24.18
2022-08-26T09:26:06.287Z,24.18
2022-08-26T09:27:06.324Z,24.20
2022-08-26T09:28:06.343Z,24.20
2022-08-26T09:29:06.257Z,24.20
2022-08-26T09:30:06.250Z,24.20
2022-08-26T09:31:10.674Z,24.21
2022-08-26T09:32:07.247Z,24.21
2022-08-26T09:33:10.008Z,24.20
2022-08-26T09:34:07.198Z,24.20
2022-08-26T09:35:06.341Z,24.23
2022-08-26T09:36:06.181Z,24.21
2022-08-26T09:37:06.168Z,24.21
2022-08-26T09:38:09.310Z,24.21
2022-08-26T09:39:07.167Z,24.23
2022-08-26T09:40:06.229Z,24.21
2022-08-26T09:41:06.125Z,24.23
2022-08-26T09:42:06.116Z,24.23
2022-08-26T09:43:06.104Z,24.23
2022-08-26T09:44:06.097Z,24.23
2022-08-26T09:45:06.123Z,24.23
2022-08-26T09:46:06.137Z,24.21
2022-08-26T09:47:06.066Z,24.21
2022-08-26T09:48:06.105Z,24.21
2022-08-26T09:49:06.041Z,24.23
2022-08-26T09:50:09.430Z,24.21
2022-08-26T09:51:06.042Z,24.21
2022-08-26T09:52:06.013Z,24.21
2022-08-26T09:53:09.942Z,24.20
2022-08-26T09:54:08.076Z,24.21
2022-08-26T09:55:05.982Z,24.20
2022-08-26T09:56:05.989Z,24.20
2022-08-26T09:57:05.957Z,24.21
2022-08-26T09:58:09.102Z,24.20
2022-08-26T09:59:06.539Z,24.18
2022-08-26T10:00:05.927Z,24.20
2022-08-26T10:01:05.960Z,24.21
2022-08-26T10:02:05.933Z,24.21
2022-08-26T10:03:06.893Z,24.20
2022-08-26T10:04:05.926Z,24.20
2022-08-26T10:05:09.597Z,24.20
2022-08-26T10:06:05.893Z,24.21
2022-08-26T10:07:05.855Z,24.21
2022-08-26T10:08:05.844Z,24.21
2022-08-26T10:09:09.731Z,24.21
2022-08-26T10:10:06.823Z,24.21
2022-08-26T10:11:05.816Z,24.21
2022-08-26T10:12:05.828Z,24.23
2022-08-26T10:13:05.866Z,24.21
2022-08-26T10:14:05.808Z,24.23
2022-08-26T10:15:05.768Z,24.21
2022-08-26T10:16:05.770Z,24.20
2022-08-26T10:17:07.058Z,24.21
2022-08-26T10:18:05.874Z,24.21
2022-08-26T10:19:05.778Z,24.23
2022-08-26T10:20:05.714Z,24.21
2022-08-26T10:21:07.276Z,24.23
2022-08-26T10:22:05.693Z,24.21
2022-08-26T10:23:05.809Z,24.23
2022-08-26T10:24:05.673Z,24.21
2022-08-26T10:25:05.660Z,24.20
2022-08-26T10:26:05.651Z,24.21
2022-08-26T10:27:05.639Z,24.23
2022-08-26T10:28:05.851Z,24.23
2022-08-26T10:29:05.618Z,24.20
2022-08-26T10:30:05.627Z,24.23
2022-08-26T10:31:05.600Z,24.23
2022-08-26T10:32:05.666Z,24.23
2022-08-26T10:33:05.661Z,24.21
2022-08-26T10:34:05.566Z,24.21
2022-08-26T10:35:05.555Z,24.21
2022-08-26T10:36:05.549Z,24.21
2022-08-26T10:37:13.647Z,24.23
2022-08-26T10:38:06.526Z,24.23
2022-08-26T10:39:05.519Z,24.23
2022-08-26T10:40:05.605Z,24.23
2022-08-26T10:41:09.710Z,24.23
2022-08-26T10:42:06.506Z,24.23
2022-08-26T10:43:11.060Z,24.21
2022-08-26T10:44:06.468Z,24.21
2022-08-26T10:45:05.452Z,24.23
2022-08-26T10:46:05.506Z,24.21
2022-08-26T10:47:05.431Z,24.21
2022-08-26T10:48:05.516Z,24.21
2022-08-26T10:49:06.602Z,24.21
2022-08-26T10:50:05.401Z,24.21
2022-08-26T10:51:05.660Z,24.20
2022-08-26T10:52:05.383Z,24.21
2022-08-26T10:53:06.389Z,24.21
2022-08-26T10:54:05.357Z,24.21
2022-08-26T10:55:05.349Z,24.23
2022-08-26T10:56:05.337Z,24.20
2022-08-26T10:57:05.325Z,24.21
2022-08-26T10:58:07.302Z,24.20
2022-08-26T10:59:05.306Z,24.21
2022-08-26T11:00:06.312Z,24.20
2022-08-26T11:01:10.293Z,24.21
2022-08-26T11:02:06.272Z,24.20
2022-08-26T11:03:05.329Z,24.23
2022-08-26T11:04:05.311Z,24.21
2022-08-26T11:05:05.263Z,24.23
2022-08-26T11:06:05.235Z,24.21
2022-08-26T11:07:05.220Z,24.21
2022-08-26T11:08:05.333Z,24.21
2022-08-26T11:09:05.199Z,24.21
2022-08-26T11:10:05.190Z,24.21
2022-08-26T11:11:05.197Z,24.23
2022-08-26T11:12:10.176Z,24.24
2022-08-26T11:13:06.209Z,24.23
2022-08-26T11:14:05.148Z,24.24
2022-08-26T11:15:05.389Z,24.26
2022-08-26T11:16:05.193Z,24.26
2022-08-26T11:17:05.173Z,24.26
2022-08-26T11:18:05.130Z,24.28
2022-08-26T11:19:05.092Z,24.28
2022-08-26T11:20:09.198Z,24.28
2022-08-26T11:21:06.069Z,24.28
2022-08-26T11:22:05.079Z,24.29
2022-08-26T11:23:05.049Z,24.28
2022-08-26T11:24:05.060Z,24.29
2022-08-26T11:25:05.028Z,24.29
2022-08-26T11:26:05.040Z,24.30
2022-08-26T11:27:05.020Z,24.30
2022-08-26T11:28:05.033Z,24.32
2022-08-26T11:29:05.005Z,24.32
2022-08-26T11:30:06.093Z,24.30
2022-08-26T11:31:04.971Z,24.32
2022-08-26T11:32:04.991Z,24.30
2022-08-26T11:33:04.947Z,24.33
2022-08-26T11:34:04.935Z,24.30
2022-08-26T11:35:04.926Z,24.32
2022-08-26T11:36:12.032Z,24.33
2022-08-26T11:37:05.906Z,24.32
2022-08-26T11:38:04.894Z,24.32
2022-08-26T11:39:04.908Z,24.33
2022-08-26T11:40:04.986Z,24.33
2022-08-26T11:41:04.876Z,24.33
2022-08-26T11:42:04.856Z,24.33
2022-08-26T11:43:04.839Z,24.32
2022-08-26T11:44:04.856Z,24.33
2022-08-26T11:45:04.889Z,24.33
2022-08-26T11:46:04.869Z,24.32
2022-08-26T11:47:04.798Z,24.32
2022-08-26T11:48:04.797Z,24.32
2022-08-26T11:49:04.778Z,24.32
2022-08-26T11:50:04.770Z,24.30
2022-08-26T11:51:04.786Z,24.32
2022-08-26T11:52:04.748Z,24.30
2022-08-26T11:53:04.734Z,24.30
2022-08-26T11:54:04.728Z,24.29
2022-08-26T11:55:04.719Z,24.29
2022-08-26T11:56:04.706Z,24.30
2022-08-26T11:57:07.934Z,24.29
2022-08-26T11:58:05.862Z,24.29
2022-08-26T11:59:04.676Z,24.28
2022-08-26T12:00:05.738Z,24.28
2022-08-26T12:01:04.652Z,24.30
2022-08-26T12:02:05.644Z,24.29
2022-08-26T12:03:04.815Z,24.29
2022-08-26T12:04:04.769Z,24.28
2022-08-26T12:05:04.611Z,24.28
2022-08-26T12:06:04.628Z,24.28
2022-08-26T12:07:04.592Z,24.28
2022-08-26T12:08:04.586Z,24.28
2022-08-26T12:09:04.573Z,24.28
2022-08-26T12:10:04.561Z,24.29
2022-08-26T12:11:04.550Z,24.28
2022-08-26T12:12:04.561Z,24.29
2022-08-26T12:13:04.547Z,24.28
2022-08-26T12:14:04.520Z,24.28
2022-08-26T12:15:04.507Z,24.26
2022-08-26T12:16:04.553Z,24.26
2022-08-26T12:17:04.506Z,24.28
2022-08-26T12:18:05.542Z,24.26
2022-08-26T12:19:04.489Z,24.28
2022-08-26T12:20:04.458Z,24.28
2022-08-26T12:21:04.446Z,24.28
2022-08-26T12:22:04.442Z,24.28
2022-08-26T12:23:04.425Z,24.28
2022-08-26T12:24:04.415Z,24.26
2022-08-26T12:25:04.424Z,24.28
2022-08-26T12:26:04.414Z,24.26
2022-08-26T12:27:04.384Z,24.26
2022-08-26T12:28:04.406Z,24.28
2022-08-26T12:29:12.611Z,24.28
2022-08-26T12:30:06.707Z,24.28
2022-08-26T12:31:04.342Z,24.28
2022-08-26T12:32:04.377Z,24.28
2022-08-26T12:33:22.445Z,24.26
2022-08-26T12:34:05.312Z,24.26
2022-08-26T12:36:04.312Z,24.26
2022-08-26T12:37:04.284Z,24.26
2022-08-26T12:38:04.298Z,24.28
2022-08-26T12:39:04.260Z,24.26
2022-08-26T12:40:04.321Z,24.28
2022-08-26T12:41:04.238Z,24.26
2022-08-26T12:42:04.231Z,24.26
2022-08-26T12:43:04.218Z,24.28
2022-08-26T12:44:04.234Z,24.28
2022-08-26T12:45:04.201Z,24.26
2022-08-26T12:46:04.225Z,24.26
2022-08-26T12:47:04.177Z,24.26
2022-08-26T12:48:04.166Z,24.28
2022-08-26T12:49:04.186Z,24.24
2022-08-26T12:50:04.146Z,24.28
2022-08-26T12:51:04.137Z,24.28
2022-08-26T12:52:04.125Z,24.26
2022-08-26T12:53:04.112Z,24.28